sensor_id;sensor_type;location;lat;lon;timestamp;pressure;altitude;pressure_sealevel;temperature;humidity
25232;BME280;13176;51.140;6.290;2023-03-03T00:00:55;101470.91;;;4.56;75.47
25232;BME280;13176;51.140;6.290;2023-03-03T00:03:23;101423.59;;;4.22;75.34
25232;BME280;13176;51.140;6.290;2023-03-03T00:05:50;101465.72;;;4.56;75.02
25232;BME280;13176;51.140;6.290;2023-03-03T00:08:18;101515.03;;;4.65;76.07
25232;BME280;13176;51.140;6.290;2023-03-03T00:10:45;101577.91;;;5.01;75.80
25232;BME280;13176;51.140;6.290;2023-03-03T00:13:15;101570.91;;;4.60;78.09
25232;BME280;13176;51.140;6.290;2023-03-03T00:15:42;101523.66;;;4.30;78.00
25232;BME280;13176;51.140;6.290;2023-03-03T00:18:30;101494.03;;;4.16;78.74
25232;BME280;13176;51.140;6.290;2023-03-03T00:21:00;101566.38;;;4.87;77.87
25232;BME280;13176;51.140;6.290;2023-03-03T00:26:01;101451.34;;;4.30;77.79
25232;BME280;13176;51.140;6.290;2023-03-03T00:28:44;101553.38;;;4.84;77.77
25232;BME280;13176;51.140;6.290;2023-03-03T00:31:20;101498.69;;;4.31;78.90
25232;BME280;13176;51.140;6.290;2023-03-03T00:33:49;101583.63;;;4.88;78.38
25232;BME280;13176;51.140;6.290;2023-03-03T00:36:35;101491.34;;;4.47;78.16
25232;BME280;13176;51.140;6.290;2023-03-03T00:39:17;101621.72;;;4.95;78.82
25232;BME280;13176;51.140;6.290;2023-03-03T00:41:44;101588.78;;;4.88;78.82
25232;BME280;13176;51.140;6.290;2023-03-03T00:47:25;101490.28;;;4.76;77.23
25232;BME280;13176;51.140;6.290;2023-03-03T00:52:40;101602.25;;;5.90;74.19
25232;BME280;13176;51.140;6.290;2023-03-03T00:55:10;101626.59;;;5.98;74.06
25232;BME280;13176;51.140;6.290;2023-03-03T00:57:37;101485.88;;;5.09;74.01
25232;BME280;13176;51.140;6.290;2023-03-03T01:00:04;101594.75;;;6.03;74.03
25232;BME280;13176;51.140;6.290;2023-03-03T01:02:30;101497.38;;;5.24;73.92
25232;BME280;13176;51.140;6.290;2023-03-03T01:04:57;101620.59;;;6.00;73.46
25232;BME280;13176;51.140;6.290;2023-03-03T01:07:23;101604.16;;;5.98;72.38
25232;BME280;13176;51.140;6.290;2023-03-03T01:09:50;101569.38;;;5.45;74.59
25232;BME280;13176;51.140;6.290;2023-03-03T01:12:17;101562.34;;;5.38;74.22
25232;BME280;13176;51.140;6.290;2023-03-03T01:14:43;101538.69;;;5.62;72.51
25232;BME280;13176;51.140;6.290;2023-03-03T01:17:10;101528.50;;;5.71;71.98
25232;BME280;13176;51.140;6.290;2023-03-03T01:19:37;101564.13;;;5.81;71.33
25232;BME280;13176;51.140;6.290;2023-03-03T01:22:03;101557.84;;;5.70;71.92
25232;BME280;13176;51.140;6.290;2023-03-03T01:24:29;101502.22;;;5.08;73.50
25232;BME280;13176;51.140;6.290;2023-03-03T01:26:56;101482.91;;;4.55;74.97
25232;BME280;13176;51.140;6.290;2023-03-03T01:29:22;101494.44;;;4.68;75.91
25232;BME280;13176;51.140;6.290;2023-03-03T01:31:49;101599.13;;;5.64;74.57
25232;BME280;13176;51.140;6.290;2023-03-03T01:34:15;101571.94;;;5.84;72.40
25232;BME280;13176;51.140;6.290;2023-03-03T01:36:42;101509.97;;;5.51;71.75
25232;BME280;13176;51.140;6.290;2023-03-03T01:39:09;101492.94;;;5.17;72.17
25232;BME280;13176;51.140;6.290;2023-03-03T01:41:36;101582.03;;;5.72;72.47
25232;BME280;13176;51.140;6.290;2023-03-03T01:44:03;101561.00;;;5.57;72.31
25232;BME280;13176;51.140;6.290;2023-03-03T01:46:36;101641.13;;;5.91;73.36
25232;BME280;13176;51.140;6.290;2023-03-03T01:49:11;101635.94;;;5.52;75.57
25232;BME280;13176;51.140;6.290;2023-03-03T01:51:44;101470.88;;;4.54;75.10
25232;BME280;13176;51.140;6.290;2023-03-03T01:54:18;101609.16;;;5.50;75.41
25232;BME280;13176;51.140;6.290;2023-03-03T01:56:46;101572.28;;;5.20;75.60
25232;BME280;13176;51.140;6.290;2023-03-03T01:59:19;101481.78;;;4.43;76.67
25232;BME280;13176;51.140;6.290;2023-03-03T02:01:47;101626.41;;;5.51;76.41
25232;BME280;13176;51.140;6.290;2023-03-03T02:04:14;101569.13;;;5.33;75.28
25232;BME280;13176;51.140;6.290;2023-03-03T02:06:50;101608.94;;;5.77;74.58
25232;BME280;13176;51.140;6.290;2023-03-03T02:09:28;101565.06;;;5.86;72.66
25232;BME280;13176;51.140;6.290;2023-03-03T02:12:00;101555.41;;;5.78;72.43
25232;BME280;13176;51.140;6.290;2023-03-03T02:14:28;101601.84;;;6.13;71.56
25232;BME280;13176;51.140;6.290;2023-03-03T02:16:55;101514.66;;;5.69;71.58
25232;BME280;13176;51.140;6.290;2023-03-03T02:19:34;101616.19;;;6.42;71.05
25232;BME280;13176;51.140;6.290;2023-03-03T02:22:04;101467.53;;;5.40;70.86
25232;BME280;13176;51.140;6.290;2023-03-03T02:24:37;101579.44;;;6.15;70.51
25232;BME280;13176;51.140;6.290;2023-03-03T02:27:05;101521.03;;;5.85;70.29
25232;BME280;13176;51.140;6.290;2023-03-03T02:29:31;101430.16;;;5.26;70.50
25232;BME280;13176;51.140;6.290;2023-03-03T02:31:57;101591.38;;;6.07;70.70
25232;BME280;13176;51.140;6.290;2023-03-03T02:34:24;101617.66;;;6.28;70.96
25232;BME280;13176;51.140;6.290;2023-03-03T02:36:51;101580.34;;;6.17;70.38
25232;BME280;13176;51.140;6.290;2023-03-03T02:39:24;101625.06;;;6.55;69.89
25232;BME280;13176;51.140;6.290;2023-03-03T02:41:59;101623.25;;;6.49;69.95
25232;BME280;13176;51.140;6.290;2023-03-03T02:44:29;101628.56;;;6.58;69.85
25232;BME280;13176;51.140;6.290;2023-03-03T02:46:56;101624.88;;;6.44;70.05
25232;BME280;13176;51.140;6.290;2023-03-03T02:49:26;101605.50;;;6.24;70.48
25232;BME280;13176;51.140;6.290;2023-03-03T02:51:53;101614.50;;;6.44;70.22
25232;BME280;13176;51.140;6.290;2023-03-03T02:54:22;101403.28;;;5.18;69.33
25232;BME280;13176;51.140;6.290;2023-03-03T02:56:49;101614.63;;;6.50;68.82
25232;BME280;13176;51.140;6.290;2023-03-03T02:59:15;101513.00;;;5.71;68.86
25232;BME280;13176;51.140;6.290;2023-03-03T03:01:42;101619.88;;;6.53;68.96
25232;BME280;13176;51.140;6.290;2023-03-03T03:04:12;101621.94;;;6.75;68.25
25232;BME280;13176;51.140;6.290;2023-03-03T03:06:39;101635.97;;;6.86;68.30
25232;BME280;13176;51.140;6.290;2023-03-03T03:09:07;101528.47;;;6.14;68.04
25232;BME280;13176;51.140;6.290;2023-03-03T03:11:34;101520.16;;;5.84;69.23
25232;BME280;13176;51.140;6.290;2023-03-03T03:14:02;101625.53;;;6.33;69.58
25232;BME280;13176;51.140;6.290;2023-03-03T03:16:28;101639.41;;;6.35;69.97
25232;BME280;13176;51.140;6.290;2023-03-03T03:18:55;101548.97;;;5.59;70.95
25232;BME280;13176;51.140;6.290;2023-03-03T03:21:21;101630.28;;;6.10;71.21
25232;BME280;13176;51.140;6.290;2023-03-03T03:23:48;101538.44;;;5.51;71.64
25232;BME280;13176;51.140;6.290;2023-03-03T03:26:14;101542.94;;;5.59;71.71
25232;BME280;13176;51.140;6.290;2023-03-03T03:28:41;101590.81;;;5.77;71.67
25232;BME280;13176;51.140;6.290;2023-03-03T03:31:08;101521.88;;;5.41;71.46
25232;BME280;13176;51.140;6.290;2023-03-03T03:33:35;101517.66;;;5.46;71.55
25232;BME280;13176;51.140;6.290;2023-03-03T03:36:02;101519.59;;;5.57;70.81
25232;BME280;13176;51.140;6.290;2023-03-03T03:38:29;101455.00;;;5.18;70.43
25232;BME280;13176;51.140;6.290;2023-03-03T03:40:57;101647.19;;;6.36;70.15
25232;BME280;13176;51.140;6.290;2023-03-03T03:43:24;101657.63;;;6.39;70.64
25232;BME280;13176;51.140;6.290;2023-03-03T03:45:52;101635.44;;;6.09;71.16
25232;BME280;13176;51.140;6.290;2023-03-03T03:48:19;101571.16;;;5.49;71.77
25232;BME280;13176;51.140;6.290;2023-03-03T03:50:47;101628.44;;;5.63;72.97
25232;BME280;13176;51.140;6.290;2023-03-03T03:53:13;101645.91;;;5.73;73.49
25232;BME280;13176;51.140;6.290;2023-03-03T03:55:40;101556.91;;;5.26;73.16
25232;BME280;13176;51.140;6.290;2023-03-03T03:58:07;101598.41;;;5.32;73.83
25232;BME280;13176;51.140;6.290;2023-03-03T04:00:34;101600.56;;;5.12;75.64
25232;BME280;13176;51.140;6.290;2023-03-03T04:03:00;101496.72;;;4.54;75.40
25232;BME280;13176;51.140;6.290;2023-03-03T04:05:26;101609.41;;;5.22;74.72
25232;BME280;13176;51.140;6.290;2023-03-03T04:07:53;101597.38;;;5.24;75.36
25232;BME280;13176;51.140;6.290;2023-03-03T04:10:19;101622.16;;;5.53;74.84
25232;BME280;13176;51.140;6.290;2023-03-03T04:12:46;101545.34;;;5.10;74.07
25232;BME280;13176;51.140;6.290;2023-03-03T04:15:13;101641.94;;;5.51;74.74
25232;BME280;13176;51.140;6.290;2023-03-03T04:17:40;101550.38;;;5.03;74.98
25232;BME280;13176;51.140;6.290;2023-03-03T04:20:09;101543.63;;;5.11;74.37
25232;BME280;13176;51.140;6.290;2023-03-03T04:22:36;101637.25;;;5.71;74.68
25232;BME280;13176;51.140;6.290;2023-03-03T04:25:03;101545.72;;;5.28;74.68
25232;BME280;13176;51.140;6.290;2023-03-03T04:27:35;101659.44;;;6.00;74.07
25232;BME280;13176;51.140;6.290;2023-03-03T04:30:03;101651.72;;;6.03;73.84
25232;BME280;13176;51.140;6.290;2023-03-03T04:32:30;101641.06;;;5.88;73.48
25232;BME280;13176;51.140;6.290;2023-03-03T04:34:59;101598.69;;;5.44;73.94
25232;BME280;13176;51.140;6.290;2023-03-03T04:37:33;101562.78;;;5.19;74.63
25232;BME280;13176;51.140;6.290;2023-03-03T04:40:00;101651.78;;;5.66;74.74
25232;BME280;13176;51.140;6.290;2023-03-03T04:42:27;101676.91;;;5.70;75.18
25232;BME280;13176;51.140;6.290;2023-03-03T04:44:54;101545.53;;;4.81;75.51
25232;BME280;13176;51.140;6.290;2023-03-03T04:47:20;101679.81;;;5.46;75.75
25232;BME280;13176;51.140;6.290;2023-03-03T04:49:47;101554.88;;;4.74;75.68
25232;BME280;13176;51.140;6.290;2023-03-03T04:52:13;101609.63;;;4.94;75.84
25232;BME280;13176;51.140;6.290;2023-03-03T04:54:40;101655.53;;;5.41;75.45
25232;BME280;13176;51.140;6.290;2023-03-03T04:57:06;101544.09;;;4.56;76.01
25232;BME280;13176;51.140;6.290;2023-03-03T04:59:34;101704.06;;;5.51;75.48
25232;BME280;13176;51.140;6.290;2023-03-03T05:02:01;101587.72;;;4.78;76.16
25232;BME280;13176;51.140;6.290;2023-03-03T05:04:30;101651.41;;;5.12;76.35
25232;BME280;13176;51.140;6.290;2023-03-03T05:06:57;101583.22;;;4.70;76.37
25232;BME280;13176;51.140;6.290;2023-03-03T05:09:24;101520.50;;;4.42;76.04
25232;BME280;13176;51.140;6.290;2023-03-03T05:11:50;101698.81;;;5.48;75.57
25232;BME280;13176;51.140;6.290;2023-03-03T05:14:17;101638.28;;;5.03;76.20
25232;BME280;13176;51.140;6.290;2023-03-03T05:16:43;101652.06;;;5.03;76.52
25232;BME280;13176;51.140;6.290;2023-03-03T05:19:12;101575.31;;;4.65;76.35
25232;BME280;13176;51.140;6.290;2023-03-03T05:21:38;101600.06;;;4.56;76.75
25232;BME280;13176;51.140;6.290;2023-03-03T05:24:09;101687.03;;;5.23;77.20
25232;BME280;13176;51.140;6.290;2023-03-03T05:26:36;101703.75;;;5.37;76.56
25232;BME280;13176;51.140;6.290;2023-03-03T05:29:03;101679.00;;;5.13;76.25
25232;BME280;13176;51.140;6.290;2023-03-03T05:31:30;101717.34;;;5.29;76.72
25232;BME280;13176;51.140;6.290;2023-03-03T05:33:56;101654.47;;;4.96;76.87
25232;BME280;13176;51.140;6.290;2023-03-03T05:36:23;101680.09;;;4.87;77.77
25232;BME280;13176;51.140;6.290;2023-03-03T05:38:50;101691.03;;;5.11;76.47
25232;BME280;13176;51.140;6.290;2023-03-03T05:41:16;101688.78;;;4.89;77.86
25232;BME280;13176;51.140;6.290;2023-03-03T05:43:42;101604.06;;;4.44;77.44
25232;BME280;13176;51.140;6.290;2023-03-03T05:46:09;101696.19;;;5.11;77.01
25232;BME280;13176;51.140;6.290;2023-03-03T05:48:36;101687.19;;;4.94;77.32
25232;BME280;13176;51.140;6.290;2023-03-03T05:51:03;101695.16;;;5.03;77.20
25232;BME280;13176;51.140;6.290;2023-03-03T05:53:29;101605.41;;;4.62;76.79
25232;BME280;13176;51.140;6.290;2023-03-03T05:55:56;101614.34;;;4.76;75.74
25232;BME280;13176;51.140;6.290;2023-03-03T05:58:22;101632.41;;;5.10;75.64
25232;BME280;13176;51.140;6.290;2023-03-03T06:00:49;101691.75;;;5.41;74.90
25232;BME280;13176;51.140;6.290;2023-03-03T06:03:15;101590.50;;;4.18;76.33
25232;BME280;13176;51.140;6.290;2023-03-03T06:05:49;101585.31;;;4.18;76.81
25232;BME280;13176;51.140;6.290;2023-03-03T06:08:16;101726.22;;;5.04;76.75
25232;BME280;13176;51.140;6.290;2023-03-03T06:10:42;101730.88;;;5.19;75.79
25232;BME280;13176;51.140;6.290;2023-03-03T06:13:09;101640.66;;;5.32;74.05
25232;BME280;13176;51.140;6.290;2023-03-03T06:15:35;101650.69;;;5.56;72.95
25232;BME280;13176;51.140;6.290;2023-03-03T06:18:02;101621.94;;;5.42;72.61
25232;BME280;13176;51.140;6.290;2023-03-03T06:20:35;101650.53;;;5.50;71.95
25232;BME280;13176;51.140;6.290;2023-03-03T06:23:01;101575.63;;;4.77;72.68
25232;BME280;13176;51.140;6.290;2023-03-03T06:25:28;101659.28;;;5.16;73.28
25232;BME280;13176;51.140;6.290;2023-03-03T06:27:54;101687.16;;;5.29;73.19
25232;BME280;13176;51.140;6.290;2023-03-03T06:30:21;101625.50;;;4.73;74.18
25232;BME280;13176;51.140;6.290;2023-03-03T06:32:49;101625.59;;;4.78;74.37
25232;BME280;13176;51.140;6.290;2023-03-03T06:35:16;101644.34;;;4.69;75.39
25232;BME280;13176;51.140;6.290;2023-03-03T06:37:43;101550.59;;;3.75;76.19
25232;BME280;13176;51.140;6.290;2023-03-03T06:40:17;101756.16;;;4.95;76.97
25232;BME280;13176;51.140;6.290;2023-03-03T06:42:44;101569.19;;;3.94;75.76
25232;BME280;13176;51.140;6.290;2023-03-03T06:45:11;101643.66;;;4.43;75.69
25232;BME280;13176;51.140;6.290;2023-03-03T06:47:37;101649.50;;;4.69;75.35
25232;BME280;13176;51.140;6.290;2023-03-03T06:50:04;101621.56;;;4.53;75.15
25232;BME280;13176;51.140;6.290;2023-03-03T06:52:30;101601.59;;;4.48;74.87
25232;BME280;13176;51.140;6.290;2023-03-03T06:54:59;101669.91;;;4.59;75.76
25232;BME280;13176;51.140;6.290;2023-03-03T06:57:29;101729.44;;;5.30;74.98
25232;BME280;13176;51.140;6.290;2023-03-03T07:00:05;101751.53;;;5.51;73.85
25232;BME280;13176;51.140;6.290;2023-03-03T07:02:35;101684.25;;;5.16;73.98
25232;BME280;13176;51.140;6.290;2023-03-03T07:05:08;101646.81;;;5.00;73.36
25232;BME280;13176;51.140;6.290;2023-03-03T07:07:45;101653.94;;;4.75;73.38
25232;BME280;13176;51.140;6.290;2023-03-03T07:10:21;101747.91;;;5.09;74.50
25232;BME280;13176;51.140;6.290;2023-03-03T07:12:48;101662.59;;;4.77;74.05
25232;BME280;13176;51.140;6.290;2023-03-03T07:15:29;101748.69;;;5.41;73.00
25232;BME280;13176;51.140;6.290;2023-03-03T07:17:59;101669.91;;;4.93;73.67
25232;BME280;13176;51.140;6.290;2023-03-03T07:20:32;101790.34;;;5.53;73.63
25232;BME280;13176;51.140;6.290;2023-03-03T07:23:13;101691.34;;;4.89;74.01
25232;BME280;13176;51.140;6.290;2023-03-03T07:25:43;101612.75;;;4.47;74.22
25232;BME280;13176;51.140;6.290;2023-03-03T07:28:31;101666.09;;;4.79;74.01
25232;BME280;13176;51.140;6.290;2023-03-03T07:30:58;101761.34;;;5.30;74.04
25232;BME280;13176;51.140;6.290;2023-03-03T07:33:25;101804.69;;;5.39;75.15
25232;BME280;13176;51.140;6.290;2023-03-03T07:35:55;101561.91;;;4.12;75.11
25232;BME280;13176;51.140;6.290;2023-03-03T07:38:41;101802.91;;;5.71;73.36
25232;BME280;13176;51.140;6.290;2023-03-03T07:41:20;101764.59;;;5.22;73.49
25232;BME280;13176;51.140;6.290;2023-03-03T07:43:51;101814.38;;;5.47;74.12
25232;BME280;13176;51.140;6.290;2023-03-03T07:46:24;101792.53;;;5.35;74.25
25232;BME280;13176;51.140;6.290;2023-03-03T07:48:51;101701.50;;;4.49;74.43
25232;BME280;13176;51.140;6.290;2023-03-03T07:51:26;101688.00;;;4.59;74.60
25232;BME280;13176;51.140;6.290;2023-03-03T07:54:14;101761.91;;;5.17;73.97
25232;BME280;13176;51.140;6.290;2023-03-03T07:56:43;101608.75;;;4.26;72.99
25232;BME280;13176;51.140;6.290;2023-03-03T07:59:20;101773.72;;;5.42;72.87
25232;BME280;13176;51.140;6.290;2023-03-03T08:01:50;101786.22;;;5.59;72.15
25232;BME280;13176;51.140;6.290;2023-03-03T08:04:43;101824.56;;;6.10;71.48
25232;BME280;13176;51.140;6.290;2023-03-03T08:07:31;101708.50;;;5.56;71.12
25232;BME280;13176;51.140;6.290;2023-03-03T08:10:01;101715.53;;;5.61;70.29
25232;BME280;13176;51.140;6.290;2023-03-03T08:12:36;101819.16;;;6.40;69.58
25232;BME280;13176;51.140;6.290;2023-03-03T08:15:17;101744.13;;;5.67;69.87
25232;BME280;13176;51.140;6.290;2023-03-03T08:18:17;101829.47;;;5.98;70.91
25232;BME280;13176;51.140;6.290;2023-03-03T08:20:47;101843.56;;;5.75;72.49
25232;BME280;13176;51.140;6.290;2023-03-03T08:23:15;101832.38;;;5.76;71.67
25232;BME280;13176;51.140;6.290;2023-03-03T08:25:42;101770.41;;;5.49;71.99
25232;BME280;13176;51.140;6.290;2023-03-03T08:28:10;101850.78;;;5.87;72.08
25232;BME280;13176;51.140;6.290;2023-03-03T08:30:37;101811.44;;;5.67;71.72
25232;BME280;13176;51.140;6.290;2023-03-03T08:33:04;101792.19;;;5.57;71.78
25232;BME280;13176;51.140;6.290;2023-03-03T08:35:31;101834.16;;;5.77;71.70
25232;BME280;13176;51.140;6.290;2023-03-03T08:37:57;101848.94;;;5.81;71.55
25232;BME280;13176;51.140;6.290;2023-03-03T08:40:24;101752.94;;;5.39;70.75
25232;BME280;13176;51.140;6.290;2023-03-03T08:42:50;101829.69;;;6.07;70.41
25232;BME280;13176;51.140;6.290;2023-03-03T08:45:17;101859.63;;;6.33;69.93
25232;BME280;13176;51.140;6.290;2023-03-03T08:47:43;101779.22;;;5.90;69.21
25232;BME280;13176;51.140;6.290;2023-03-03T08:50:15;101822.97;;;6.15;68.91
25232;BME280;13176;51.140;6.290;2023-03-03T08:52:43;101754.72;;;5.76;68.28
25232;BME280;13176;51.140;6.290;2023-03-03T08:55:09;101724.28;;;5.68;68.30
25232;BME280;13176;51.140;6.290;2023-03-03T08:57:36;101761.78;;;5.83;67.91
25232;BME280;13176;51.140;6.290;2023-03-03T09:00:06;101829.81;;;6.13;68.76
25232;BME280;13176;51.140;6.290;2023-03-03T09:02:33;101782.56;;;5.86;68.76
25232;BME280;13176;51.140;6.290;2023-03-03T09:04:59;101787.63;;;5.80;69.35
25232;BME280;13176;51.140;6.290;2023-03-03T09:07:26;101765.44;;;5.21;69.94
25232;BME280;13176;51.140;6.290;2023-03-03T09:09:52;101775.97;;;5.63;69.11
25232;BME280;13176;51.140;6.290;2023-03-03T09:12:28;101893.97;;;6.63;68.38
25232;BME280;13176;51.140;6.290;2023-03-03T09:14:57;101742.41;;;5.66;67.89
25232;BME280;13176;51.140;6.290;2023-03-03T09:17:30;101891.44;;;6.66;68.01
25232;BME280;13176;51.140;6.290;2023-03-03T09:22:50;101842.13;;;6.23;67.87
25232;BME280;13176;51.140;6.290;2023-03-03T09:25:21;101891.13;;;6.51;67.99
25232;BME280;13176;51.140;6.290;2023-03-03T09:27:52;101776.63;;;5.90;68.30
25232;BME280;13176;51.140;6.290;2023-03-03T09:32:49;101758.00;;;6.06;67.25
25232;BME280;13176;51.140;6.290;2023-03-03T09:35:37;101896.31;;;6.91;66.92
25232;BME280;13176;51.140;6.290;2023-03-03T09:38:25;101895.28;;;6.84;67.37
25232;BME280;13176;51.140;6.290;2023-03-03T09:49:40;101894.34;;;6.41;69.05
25232;BME280;13176;51.140;6.290;2023-03-03T09:57:59;101911.63;;;6.79;68.08
25232;BME280;13176;51.140;6.290;2023-03-03T10:12:17;101919.53;;;6.85;67.49
25232;BME280;13176;51.140;6.290;2023-03-03T10:20:37;101895.50;;;6.95;66.06
25232;BME280;13176;51.140;6.290;2023-03-03T10:23:29;101805.41;;;6.42;65.60
25232;BME280;13176;51.140;6.290;2023-03-03T10:26:05;101916.25;;;6.95;65.90
25232;BME280;13176;51.140;6.290;2023-03-03T10:28:52;101873.00;;;6.94;65.84
25232;BME280;13176;51.140;6.290;2023-03-03T10:31:57;101908.25;;;7.26;65.29
25232;BME280;13176;51.140;6.290;2023-03-03T10:37:46;101916.31;;;7.41;64.47
25232;BME280;13176;51.140;6.290;2023-03-03T10:40:22;101900.66;;;7.38;64.41
25232;BME280;13176;51.140;6.290;2023-03-03T10:43:08;101914.13;;;7.62;64.81
25232;BME280;13176;51.140;6.290;2023-03-03T10:48:29;101910.31;;;7.43;65.27
25232;BME280;13176;51.140;6.290;2023-03-03T10:54:04;101911.56;;;7.19;66.28
25232;BME280;13176;51.140;6.290;2023-03-03T10:56:47;101918.66;;;7.29;65.76
25232;BME280;13176;51.140;6.290;2023-03-03T11:07:43;101917.47;;;7.12;66.02
25232;BME280;13176;51.140;6.290;2023-03-03T11:10:22;101920.19;;;7.18;65.31
25232;BME280;13176;51.140;6.290;2023-03-03T11:13:18;101917.56;;;7.62;64.36
25232;BME280;13176;51.140;6.290;2023-03-03T11:23:49;101920.72;;;7.93;62.24
25232;BME280;13176;51.140;6.290;2023-03-03T11:26:31;101914.00;;;8.07;61.84
25232;BME280;13176;51.140;6.290;2023-03-03T11:34:36;101920.09;;;8.09;63.19
25232;BME280;13176;51.140;6.290;2023-03-03T11:39:43;101889.00;;;7.61;63.03
25232;BME280;13176;51.140;6.290;2023-03-03T11:45:33;101921.34;;;7.81;63.24
25232;BME280;13176;51.140;6.290;2023-03-03T11:50:49;101864.09;;;7.75;62.75
25232;BME280;13176;51.140;6.290;2023-03-03T11:56:26;101883.53;;;7.97;62.45
25232;BME280;13176;51.140;6.290;2023-03-03T12:02:25;101876.16;;;8.23;60.74
25232;BME280;13176;51.140;6.290;2023-03-03T12:04:58;101892.81;;;8.35;61.64
25232;BME280;13176;51.140;6.290;2023-03-03T12:13:31;101787.22;;;7.86;61.16
25232;BME280;13176;51.140;6.290;2023-03-03T12:16:11;101879.06;;;8.45;61.55
25232;BME280;13176;51.140;6.290;2023-03-03T12:18:59;101878.09;;;8.36;61.77
25232;BME280;13176;51.140;6.290;2023-03-03T12:21:49;101853.28;;;8.01;62.38
25232;BME280;13176;51.140;6.290;2023-03-03T12:30:12;101879.97;;;8.46;62.37
25232;BME280;13176;51.140;6.290;2023-03-03T12:38:32;101864.84;;;8.19;63.08
25232;BME280;13176;51.140;6.290;2023-03-03T12:41:14;101880.53;;;8.25;62.17
25232;BME280;13176;51.140;6.290;2023-03-03T12:43:54;101873.72;;;8.33;61.03
25232;BME280;13176;51.140;6.290;2023-03-03T12:49:08;101876.94;;;8.17;61.81
25232;BME280;13176;51.140;6.290;2023-03-03T12:54:39;101881.44;;;7.76;63.25
25232;BME280;13176;51.140;6.290;2023-03-03T13:02:50;101880.16;;;8.04;62.96
25232;BME280;13176;51.140;6.290;2023-03-03T13:08:37;101877.13;;;8.29;61.77
25232;BME280;13176;51.140;6.290;2023-03-03T13:14:11;101753.44;;;7.29;62.29
25232;BME280;13176;51.140;6.290;2023-03-03T13:17:04;101879.34;;;8.07;62.43
25232;BME280;13176;51.140;6.290;2023-03-03T13:25:03;101839.47;;;8.05;61.37
25232;BME280;13176;51.140;6.290;2023-03-03T13:27:43;101835.03;;;7.96;61.89
25232;BME280;13176;51.140;6.290;2023-03-03T13:32:51;101716.34;;;7.38;62.02
25232;BME280;13176;51.140;6.290;2023-03-03T13:35:44;101877.03;;;8.23;61.75
25232;BME280;13176;51.140;6.290;2023-03-03T13:38:13;101811.78;;;8.07;60.96
25232;BME280;13176;51.140;6.290;2023-03-03T13:41:03;101874.19;;;8.66;60.32
25232;BME280;13176;51.140;6.290;2023-03-03T13:43:39;101832.41;;;8.54;60.06
25232;BME280;13176;51.140;6.290;2023-03-03T13:46:21;101863.84;;;8.75;60.33
25232;BME280;13176;51.140;6.290;2023-03-03T13:49:15;101861.44;;;8.89;59.93
25232;BME280;13176;51.140;6.290;2023-03-03T13:52:00;101815.13;;;8.59;59.68
25232;BME280;13176;51.140;6.290;2023-03-03T13:54:50;101864.09;;;8.93;59.27
25232;BME280;13176;51.140;6.290;2023-03-03T13:57:21;101846.50;;;8.71;60.04
25232;BME280;13176;51.140;6.290;2023-03-03T14:05:14;101764.38;;;8.21;60.24
25232;BME280;13176;51.140;6.290;2023-03-03T14:08:11;101818.31;;;8.40;60.33
25232;BME280;13176;51.140;6.290;2023-03-03T14:11:09;101783.53;;;8.29;60.51
25232;BME280;13176;51.140;6.290;2023-03-03T14:18:53;101769.06;;;8.52;59.80
25232;BME280;13176;51.140;6.290;2023-03-03T14:21:28;101841.78;;;9.16;59.12
25232;BME280;13176;51.140;6.290;2023-03-03T14:24:23;101850.44;;;9.15;59.43
25232;BME280;13176;51.140;6.290;2023-03-03T14:26:54;101805.31;;;9.16;59.53
25232;BME280;13176;51.140;6.290;2023-03-03T14:29:31;101825.63;;;9.53;58.72
25232;BME280;13176;51.140;6.290;2023-03-03T14:32:00;101807.50;;;9.65;57.18
25232;BME280;13176;51.140;6.290;2023-03-03T14:34:39;101724.13;;;9.65;56.69
25232;BME280;13176;51.140;6.290;2023-03-03T14:37:25;101825.53;;;10.67;54.89
25232;BME280;13176;51.140;6.290;2023-03-03T14:40:15;101828.97;;;10.54;53.88
25232;BME280;13176;51.140;6.290;2023-03-03T14:45:36;101815.94;;;10.54;55.57
25232;BME280;13176;51.140;6.290;2023-03-03T14:48:22;101806.34;;;10.53;54.92
25232;BME280;13176;51.140;6.290;2023-03-03T14:50:57;101823.81;;;10.69;55.77
25232;BME280;13176;51.140;6.290;2023-03-03T14:53:35;101800.28;;;10.66;54.52
25232;BME280;13176;51.140;6.290;2023-03-03T14:56:16;101798.50;;;10.56;54.90
25232;BME280;13176;51.140;6.290;2023-03-03T14:58:48;101752.19;;;10.02;54.87
25232;BME280;13176;51.140;6.290;2023-03-03T15:01:44;101787.06;;;10.24;54.94
25232;BME280;13176;51.140;6.290;2023-03-03T15:04:26;101800.97;;;10.18;55.59
25232;BME280;13176;51.140;6.290;2023-03-03T15:06:54;101793.06;;;10.07;55.46
25232;BME280;13176;51.140;6.290;2023-03-03T15:11:55;101807.88;;;10.13;56.35
25232;BME280;13176;51.140;6.290;2023-03-03T15:14:37;101811.25;;;9.98;56.42
25232;BME280;13176;51.140;6.290;2023-03-03T15:23:15;101808.38;;;9.65;57.71
25232;BME280;13176;51.140;6.290;2023-03-03T15:26:19;101584.22;;;8.28;58.92
25232;BME280;13176;51.140;6.290;2023-03-03T15:31:46;101793.72;;;9.78;57.88
25232;BME280;13176;51.140;6.290;2023-03-03T15:34:30;101761.47;;;9.65;57.57
25232;BME280;13176;51.140;6.290;2023-03-03T15:37:17;101755.47;;;9.74;57.39
25232;BME280;13176;51.140;6.290;2023-03-03T15:42:47;101779.72;;;9.67;58.13
25232;BME280;13176;51.140;6.290;2023-03-03T15:45:31;101778.91;;;9.74;58.33
25232;BME280;13176;51.140;6.290;2023-03-03T15:48:52;101643.81;;;9.01;58.06
25232;BME280;13176;51.140;6.290;2023-03-03T15:54:18;101778.09;;;9.81;57.10
25232;BME280;13176;51.140;6.290;2023-03-03T16:02:21;101736.44;;;9.93;56.60
25232;BME280;13176;51.140;6.290;2023-03-03T16:04:57;101774.88;;;10.20;56.46
25232;BME280;13176;51.140;6.290;2023-03-03T16:10:38;101715.69;;;10.05;55.61
25232;BME280;13176;51.140;6.290;2023-03-03T16:13:36;101776.84;;;10.75;55.29
25232;BME280;13176;51.140;6.290;2023-03-03T16:16:24;101775.19;;;11.21;53.81
25232;BME280;13176;51.140;6.290;2023-03-03T16:19:28;101655.91;;;10.82;52.16
25232;BME280;13176;51.140;6.290;2023-03-03T16:22:08;101663.72;;;11.11;51.96